A And A — ZGBA7 — position and weather

sailwx.info

Track history (hours):
 
Tides and Currents Weather Stations Pressure Air Temp Water Temp Dewpoint Dewpoint Depression Visibility Wind Speed Wind Dir Waves Ship Positions

A And A

Last reported at 2015-Jul-04 18:32 UTC. Time now 2015-Jul-05 09:25 UTC.
Position N 43°16' E 006°38'.

Type: Pleasure craft. MMSI: 232155000.

Date/timePositionNaut miles runAvg speedWind from/ knotsBaromVisibWave heightAir tempDewpointWater temp
2015-Jul-04 18:32N 43°16' E 006°38'2 2.5
2015-Jul-04 17:33N 43°17' E 006°41'4 4.1
2015-Jul-04 16:33N 43°13' E 006°40'0 0.0
2015-Jul-04 15:33N 43°13' E 006°40'0 0.0
2015-Jul-04 14:28N 43°13' E 006°40'0 0.0
2015-Jul-04 13:23N 43°13' E 006°40'0 0.0
2015-Jul-04 12:31N 43°13' E 006°40'4 0.2
2015-Jul-03 18:21N 43°16' E 006°38'8 9.9
2015-Jul-03 17:31N 43°21' E 006°48'13 6.2
2015-Jul-03 15:30N 43°31' E 006°57'0 0.0
2015-Jul-03 14:26N 43°31' E 006°57'0 0.0
2015-Jul-03 03:21N 43°31' E 006°57'0 0.0
2015-Jul-03 02:04N 43°31' E 006°57'0 0.0
2015-Jul-02 18:26N 43°31' E 006°57'0 0.0
2015-Jul-02 16:33N 43°31' E 006°57'0 0.0
2015-Jul-02 15:20N 43°31' E 006°57'7 0.4
2015-Jul-01 21:33N 43°30' E 007°06'1413.1
2015-Jul-01 20:28N 43°36' E 007°24'5213.1
2015-Jul-01 16:32N 43°59' E 008°28'1312.8
2015-Jul-01 15:30N 44°06' E 008°44'1212.8
2015-Jul-01 14:33N 44°12' E 008°58'1212.0
2015-Jul-01 13:32N 44°18' E 009°13'0 0.0
2015-Jun-30 07:13N 44°18' E 009°13'5 6.3
2015-Jun-30 06:30N 44°14' E 009°10'1212.8
2015-Jun-30 05:33N 44°09' E 008°55'1312.8
2015-Jun-30 04:33N 44°04' E 008°39'1812.7
2015-Jun-30 03:10N 43°55' E 008°17'4712.6
2015-Jun-29 23:23N 43°34' E 007°18'16 2.6
2015-Jun-29 17:27N 43°31' E 006°57'0 0.0
2015-Jun-29 16:29N 43°31' E 006°57'0 0.0
2015-Jun-29 13:33N 43°31' E 006°57'0 0.0
2015-Jun-29 12:08N 43°31' E 006°57'0 0.0
2015-Jun-29 10:32N 43°31' E 006°57'3 2.0
2015-Jun-29 09:06N 43°29' E 006°58'16 1.0
2015-Jun-28 17:26N 43°17' E 006°43'18 2.1
2015-Jun-28 09:07N 43°31' E 006°57'0 0.0
2015-Jun-28 08:27N 43°31' E 006°57'0 0.0
2015-Jun-27 23:05N 43°31' E 006°57'0 0.0
2015-Jun-27 22:34N 43°31' E 006°57'0 0.0
2015-Jun-27 19:32N 43°31' E 006°57'0 0.0
2015-Jun-27 18:34N 43°31' E 006°57'0 0.0
2015-Jun-27 14:33N 43°31' E 006°57'0 0.0
2015-Jun-27 13:15N 43°31' E 006°57'0 0.0
2015-Jun-27 12:15N 43°31' E 006°57'0 0.0
2015-Jun-27 06:28N 43°31' E 006°57'  
Track history (hours):
 
Tides and Currents Weather Stations Pressure Air Temp Water Temp Dewpoint Dewpoint Depression Visibility Wind Speed Wind Dir Waves Ship Positions

A And A

Last reported at 2015-Jul-04 18:32 UTC. Time now 2015-Jul-05 09:25 UTC.
Position N 43°16' E 006°38'.

Type: Pleasure craft. MMSI: 232155000.

Date/timePositionNaut miles runAvg speedWind from/ knotsBaromVisibWave heightAir tempDewpointWater temp
2015-Jul-04 18:32N 43°16' E 006°38'2 2.5
2015-Jul-04 17:33N 43°17' E 006°41'4 4.1
2015-Jul-04 16:33N 43°13' E 006°40'0 0.0
2015-Jul-04 15:33N 43°13' E 006°40'0 0.0
2015-Jul-04 14:28N 43°13' E 006°40'0 0.0
2015-Jul-04 13:23N 43°13' E 006°40'0 0.0
2015-Jul-04 12:31N 43°13' E 006°40'4 0.2
2015-Jul-03 18:21N 43°16' E 006°38'8 9.9
2015-Jul-03 17:31N 43°21' E 006°48'13 6.2
2015-Jul-03 15:30N 43°31' E 006°57'0 0.0
2015-Jul-03 14:26N 43°31' E 006°57'0 0.0
2015-Jul-03 03:21N 43°31' E 006°57'0 0.0
2015-Jul-03 02:04N 43°31' E 006°57'0 0.0
2015-Jul-02 18:26N 43°31' E 006°57'0 0.0
2015-Jul-02 16:33N 43°31' E 006°57'0 0.0
2015-Jul-02 15:20N 43°31' E 006°57'7 0.4
2015-Jul-01 21:33N 43°30' E 007°06'1413.1
2015-Jul-01 20:28N 43°36' E 007°24'5213.1
2015-Jul-01 16:32N 43°59' E 008°28'1312.8
2015-Jul-01 15:30N 44°06' E 008°44'1212.8
2015-Jul-01 14:33N 44°12' E 008°58'1212.0
2015-Jul-01 13:32N 44°18' E 009°13'0 0.0
2015-Jun-30 07:13N 44°18' E 009°13'5 6.3
2015-Jun-30 06:30N 44°14' E 009°10'1212.8
2015-Jun-30 05:33N 44°09' E 008°55'1312.8
2015-Jun-30 04:33N 44°04' E 008°39'1812.7
2015-Jun-30 03:10N 43°55' E 008°17'4712.6
2015-Jun-29 23:23N 43°34' E 007°18'16 2.6
2015-Jun-29 17:27N 43°31' E 006°57'0 0.0
2015-Jun-29 16:29N 43°31' E 006°57'0 0.0
2015-Jun-29 13:33N 43°31' E 006°57'0 0.0
2015-Jun-29 12:08N 43°31' E 006°57'0 0.0
2015-Jun-29 10:32N 43°31' E 006°57'3 2.0
2015-Jun-29 09:06N 43°29' E 006°58'16 1.0
2015-Jun-28 17:26N 43°17' E 006°43'18 2.1
2015-Jun-28 09:07N 43°31' E 006°57'0 0.0
2015-Jun-28 08:27N 43°31' E 006°57'0 0.0
2015-Jun-27 23:05N 43°31' E 006°57'0 0.0
2015-Jun-27 22:34N 43°31' E 006°57'0 0.0
2015-Jun-27 19:32N 43°31' E 006°57'0 0.0
2015-Jun-27 18:34N 43°31' E 006°57'0 0.0
2015-Jun-27 14:33N 43°31' E 006°57'0 0.0
2015-Jun-27 13:15N 43°31' E 006°57'0 0.0
2015-Jun-27 12:15N 43°31' E 006°57'0 0.0
2015-Jun-27 06:28N 43°31' E 006°57'  

Dump ship's entire track history